createdAt,value
2023-04-27T00:00:54.921Z,64.45
2023-04-27T00:01:54.951Z,61.71
2023-04-27T00:02:55.074Z,62.36
2023-04-27T00:03:55.103Z,59.46
2023-04-27T00:04:55.064Z,61.07
2023-04-27T00:05:55.052Z,62.04
2023-04-27T00:06:54.877Z,64.29
2023-04-27T00:07:54.850Z,59.62
2023-04-27T00:08:54.867Z,59.94
2023-04-27T00:09:54.838Z,59.62
2023-04-27T00:10:54.821Z,63.81
2023-04-27T00:11:54.820Z,62.20
2023-04-27T00:12:54.794Z,62.84
2023-04-27T00:13:54.786Z,62.04
2023-04-27T00:14:54.775Z,63.33
2023-04-27T00:15:55.406Z,63.00
2023-04-27T00:16:54.782Z,62.68
2023-04-27T00:17:54.798Z,60.91
2023-04-27T00:18:54.738Z,63.65
2023-04-27T00:19:54.740Z,62.04
2023-04-27T00:20:54.715Z,63.33
2023-04-27T00:21:54.716Z,60.42
2023-04-27T00:22:54.706Z,62.36
2023-04-27T00:23:54.671Z,59.94
2023-04-27T00:24:54.664Z,61.07
2023-04-27T00:25:54.653Z,61.87
2023-04-27T00:26:54.661Z,61.07
2023-04-27T00:27:54.647Z,58.81
2023-04-27T00:28:54.634Z,59.46
2023-04-27T00:29:54.610Z,60.26
2023-04-27T00:30:54.640Z,61.39
2023-04-27T00:31:54.620Z,60.10
2023-04-27T00:32:54.621Z,62.52
2023-04-27T00:33:54.560Z,62.04
2023-04-27T00:34:54.548Z,62.04
2023-04-27T00:35:54.560Z,61.07
2023-04-27T00:36:54.525Z,61.39
2023-04-27T00:37:54.512Z,61.23
2023-04-27T00:38:54.512Z,59.94
2023-04-27T00:39:54.497Z,62.36
2023-04-27T00:40:54.506Z,63.81
2023-04-27T00:41:54.472Z,64.29
2023-04-27T00:42:54.453Z,63.49
2023-04-27T00:43:54.454Z,59.14
2023-04-27T00:44:54.442Z,59.46
2023-04-27T00:45:54.521Z,60.10
2023-04-27T00:46:54.417Z,58.17
2023-04-27T00:47:54.448Z,61.23
2023-04-27T00:48:54.401Z,62.36
2023-04-27T00:49:54.396Z,58.65
2023-04-27T00:50:54.357Z,62.36
2023-04-27T00:51:54.371Z,61.55
2023-04-27T00:52:54.337Z,59.94
2023-04-27T00:53:54.331Z,64.13
2023-04-27T00:54:55.322Z,61.71
2023-04-27T00:55:54.335Z,62.36
2023-04-27T00:56:54.295Z,62.68
2023-04-27T00:57:54.292Z,63.97
2023-04-27T00:58:54.274Z,62.20
2023-04-27T00:59:54.269Z,62.52
2023-04-27T01:00:54.312Z,62.04
2023-04-27T01:01:54.254Z,62.84
2023-04-27T01:02:54.319Z,62.36
2023-04-27T01:03:54.433Z,63.16
2023-04-27T01:04:54.206Z,62.84
2023-04-27T01:05:55.217Z,63.65
2023-04-27T01:06:54.188Z,62.04
2023-04-27T01:07:54.176Z,63.16
2023-04-27T01:08:54.157Z,61.87
2023-04-27T01:09:54.159Z,64.29
2023-04-27T01:10:54.154Z,66.06
2023-04-27T01:11:54.137Z,61.71
2023-04-27T01:12:54.118Z,64.78
2023-04-27T01:13:54.107Z,62.20
2023-04-27T01:14:54.101Z,63.97
2023-04-27T01:15:54.119Z,65.58
2023-04-27T01:16:54.135Z,64.13
2023-04-27T01:17:54.074Z,67.03
2023-04-27T01:18:54.058Z,63.81
2023-04-27T01:19:54.048Z,62.04
2023-04-27T01:20:54.063Z,63.81
2023-04-27T01:21:54.020Z,63.33
2023-04-27T01:22:54.006Z,62.52
2023-04-27T01:23:53.994Z,63.00
2023-04-27T01:24:54.009Z,64.94
2023-04-27T01:25:54.004Z,63.49
2023-04-27T01:26:53.985Z,65.74
2023-04-27T01:27:53.964Z,63.65
2023-04-27T01:28:53.952Z,64.29
2023-04-27T01:29:53.943Z,62.04
2023-04-27T01:30:53.968Z,63.33
2023-04-27T01:31:53.928Z,63.97
2023-04-27T01:32:53.934Z,63.97
2023-04-27T01:33:53.900Z,62.20
2023-04-27T01:34:53.881Z,63.33
2023-04-27T01:35:53.898Z,63.49
2023-04-27T01:36:53.864Z,64.29
2023-04-27T01:37:53.859Z,63.49
2023-04-27T01:38:53.836Z,61.87
2023-04-27T01:39:53.840Z,63.49
2023-04-27T01:40:53.848Z,63.33
2023-04-27T01:41:53.821Z,60.42
2023-04-27T01:42:53.810Z,61.87
2023-04-27T01:43:53.817Z,59.30
2023-04-27T01:44:53.782Z,60.42
2023-04-27T01:45:53.821Z,62.36
2023-04-27T01:46:53.761Z,63.33
2023-04-27T01:47:53.765Z,60.75
2023-04-27T01:48:53.740Z,64.61
2023-04-27T01:49:53.733Z,63.33
2023-04-27T01:50:53.806Z,61.39
2023-04-27T01:51:53.709Z,63.65
2023-04-27T01:52:53.703Z,64.45
2023-04-27T01:53:53.708Z,63.65
2023-04-27T01:54:53.678Z,63.49
2023-04-27T01:55:53.781Z,63.16
2023-04-27T01:56:53.651Z,61.07
2023-04-27T01:57:53.645Z,59.14
2023-04-27T01:58:53.644Z,63.97
2023-04-27T01:59:53.638Z,62.36
2023-04-27T02:00:53.631Z,65.58
2023-04-27T02:01:53.684Z,65.58
2023-04-27T02:02:53.912Z,61.71
2023-04-27T02:03:53.752Z,65.26
2023-04-27T02:04:53.602Z,63.16
2023-04-27T02:05:53.572Z,63.65
2023-04-27T02:06:53.554Z,63.97
2023-04-27T02:07:53.543Z,64.61
2023-04-27T02:08:53.531Z,65.26
2023-04-27T02:09:53.518Z,63.65
2023-04-27T02:10:53.508Z,65.26
2023-04-27T02:11:53.532Z,64.61
2023-04-27T02:12:53.486Z,61.87
2023-04-27T02:13:53.479Z,64.29
2023-04-27T02:14:53.463Z,61.55
2023-04-27T02:15:53.530Z,62.20
2023-04-27T02:16:53.447Z,65.58
2023-04-27T02:17:53.456Z,61.87
2023-04-27T02:18:53.424Z,63.49
2023-04-27T02:19:53.416Z,64.29
2023-04-27T02:20:53.391Z,61.07
2023-04-27T02:21:53.413Z,63.00
2023-04-27T02:22:53.393Z,61.07
2023-04-27T02:23:53.376Z,64.45
2023-04-27T02:24:53.375Z,65.10
2023-04-27T02:25:53.375Z,64.29
2023-04-27T02:26:53.358Z,66.87
2023-04-27T02:27:53.327Z,62.52
2023-04-27T02:28:53.306Z,62.68
2023-04-27T02:29:53.295Z,66.39
2023-04-27T02:30:53.288Z,65.58
2023-04-27T02:31:53.370Z,64.61
2023-04-27T02:32:53.277Z,63.33
2023-04-27T02:33:53.256Z,63.49
2023-04-27T02:34:53.258Z,66.87
2023-04-27T02:35:53.247Z,65.42
2023-04-27T02:36:53.242Z,64.94
2023-04-27T02:37:53.223Z,66.55
2023-04-27T02:38:53.196Z,64.13
2023-04-27T02:39:53.178Z,64.94
2023-04-27T02:41:25.110Z,65.26
2023-04-27T02:41:53.170Z,65.58
2023-04-27T02:42:53.169Z,63.65
2023-04-27T02:43:53.142Z,64.78
2023-04-27T02:44:53.134Z,64.13
2023-04-27T02:45:53.124Z,61.23
2023-04-27T02:46:53.196Z,65.90
2023-04-27T02:47:53.089Z,65.58
2023-04-27T02:48:53.078Z,63.49
2023-04-27T02:49:53.086Z,64.29
2023-04-27T02:50:53.061Z,65.42
2023-04-27T02:51:53.070Z,62.84
2023-04-27T02:52:53.045Z,65.90
2023-04-27T02:53:53.040Z,63.16
2023-04-27T02:54:53.019Z,65.26
2023-04-27T02:55:53.003Z,64.29
2023-04-27T02:56:53.013Z,64.78
2023-04-27T02:57:52.979Z,64.61
2023-04-27T02:58:52.971Z,66.06
2023-04-27T02:59:52.961Z,65.26
2023-04-27T03:00:52.986Z,64.94
2023-04-27T03:01:52.963Z,64.78
2023-04-27T03:02:53.078Z,61.55
2023-04-27T03:03:53.067Z,62.04
2023-04-27T03:04:52.908Z,65.10
2023-04-27T03:05:52.903Z,65.74
2023-04-27T03:06:53.909Z,65.10
2023-04-27T03:07:52.878Z,65.42
2023-04-27T03:08:52.857Z,64.45
2023-04-27T03:09:52.844Z,64.45
2023-04-27T03:10:52.833Z,63.00
2023-04-27T03:11:52.851Z,65.42
2023-04-27T03:12:52.820Z,66.23
2023-04-27T03:13:52.803Z,64.78
2023-04-27T03:14:52.811Z,66.06
2023-04-27T03:15:52.794Z,65.42
2023-04-27T03:16:52.841Z,63.97
2023-04-27T03:17:52.854Z,67.51
2023-04-27T03:18:52.756Z,68.48
2023-04-27T03:19:52.726Z,66.71
2023-04-27T03:20:52.718Z,66.55
2023-04-27T03:21:52.769Z,65.90
2023-04-27T03:22:52.712Z,65.58
2023-04-27T03:23:52.704Z,64.94
2023-04-27T03:24:52.676Z,68.96
2023-04-27T03:25:52.674Z,66.06
2023-04-27T03:26:52.681Z,66.55
2023-04-27T03:27:52.665Z,64.29
2023-04-27T03:28:52.645Z,66.39
2023-04-27T03:29:52.638Z,63.65
2023-04-27T03:30:52.616Z,64.61
2023-04-27T03:31:52.673Z,66.87
2023-04-27T03:32:52.655Z,64.13
2023-04-27T03:33:52.589Z,65.10
2023-04-27T03:34:52.602Z,66.23
2023-04-27T03:35:52.570Z,66.71
2023-04-27T03:36:52.901Z,65.74
2023-04-27T03:37:52.555Z,67.35
2023-04-27T03:38:52.538Z,66.55
2023-04-27T03:39:52.524Z,67.35
2023-04-27T03:40:52.513Z,66.39
2023-04-27T03:41:52.522Z,69.13
2023-04-27T03:42:52.521Z,66.39
2023-04-27T03:43:52.488Z,67.35
2023-04-27T03:44:52.463Z,67.84
2023-04-27T03:45:52.502Z,68.16
2023-04-27T03:46:52.480Z,65.58
2023-04-27T03:47:52.467Z,65.58
2023-04-27T03:48:52.432Z,67.03
2023-04-27T03:49:52.427Z,68.32
2023-04-27T03:50:52.432Z,66.06
2023-04-27T03:51:52.401Z,64.94
2023-04-27T03:52:52.387Z,65.10
2023-04-27T03:53:52.389Z,68.48
2023-04-27T03:54:52.364Z,66.71
2023-04-27T03:55:52.393Z,66.87
2023-04-27T03:56:52.374Z,68.64
2023-04-27T03:57:52.341Z,69.13
2023-04-27T03:58:52.324Z,69.61
2023-04-27T03:59:52.327Z,67.84
2023-04-27T04:00:52.376Z,66.39
2023-04-27T04:01:52.364Z,67.84
2023-04-27T04:02:52.384Z,66.55
2023-04-27T04:03:52.381Z,65.74
2023-04-27T04:04:52.398Z,67.84
2023-04-27T04:05:52.265Z,69.93
2023-04-27T04:06:52.285Z,67.03
2023-04-27T04:07:52.235Z,67.84
2023-04-27T04:08:52.231Z,67.35
2023-04-27T04:09:52.216Z,67.68
2023-04-27T04:10:52.210Z,68.64
2023-04-27T04:11:52.235Z,68.80
2023-04-27T04:12:52.194Z,68.00
2023-04-27T04:13:52.175Z,67.03
2023-04-27T04:14:52.161Z,68.00
2023-04-27T04:15:52.163Z,68.16
2023-04-27T04:16:53.160Z,67.35
2023-04-27T04:17:52.160Z,68.80
2023-04-27T04:18:52.122Z,69.13
2023-04-27T04:19:52.104Z,67.68
2023-04-27T04:20:52.100Z,70.25
2023-04-27T04:21:52.145Z,69.93
2023-04-27T04:22:52.079Z,70.09
2023-04-27T04:23:52.069Z,66.87
2023-04-27T04:24:52.069Z,67.68
2023-04-27T04:25:52.046Z,66.87
2023-04-27T04:26:52.065Z,67.19
2023-04-27T04:27:52.044Z,68.80
2023-04-27T04:28:52.028Z,68.80
2023-04-27T04:29:52.017Z,66.39
2023-04-27T04:30:52.153Z,66.71
2023-04-27T04:31:52.102Z,69.61
2023-04-27T04:32:52.015Z,67.35
2023-04-27T04:33:51.975Z,67.68
2023-04-27T04:34:51.965Z,69.29
2023-04-27T04:35:51.979Z,68.80
2023-04-27T04:36:52.013Z,68.80
2023-04-27T04:37:51.929Z,69.77
2023-04-27T04:38:51.935Z,69.13
2023-04-27T04:39:51.914Z,68.32
2023-04-27T04:40:51.901Z,69.61
2023-04-27T04:41:51.914Z,70.58
2023-04-27T04:42:51.887Z,70.09
2023-04-27T04:43:51.888Z,69.77
2023-04-27T04:44:51.875Z,69.45
2023-04-27T04:45:51.852Z,69.93
2023-04-27T04:46:51.884Z,69.93
2023-04-27T04:47:51.882Z,70.90
2023-04-27T04:48:54.520Z,70.42
2023-04-27T04:49:51.813Z,69.45
2023-04-27T04:50:51.805Z,70.09
2023-04-27T04:51:51.817Z,70.90
2023-04-27T04:52:51.777Z,70.09
2023-04-27T04:53:51.770Z,71.70
2023-04-27T04:54:51.756Z,70.58
2023-04-27T04:55:51.745Z,69.61
2023-04-27T04:56:51.763Z,69.93
2023-04-27T04:57:51.728Z,70.42
2023-04-27T04:58:51.705Z,70.90
2023-04-27T04:59:51.711Z,71.22
2023-04-27T05:00:51.715Z,71.38
2023-04-27T05:01:51.761Z,70.58
2023-04-27T05:02:51.790Z,72.19
2023-04-27T05:03:51.847Z,70.74
2023-04-27T05:04:51.761Z,71.22
2023-04-27T05:05:51.648Z,70.90
2023-04-27T05:06:51.682Z,69.77
2023-04-27T05:07:51.632Z,68.80
2023-04-27T05:08:51.631Z,67.51
2023-04-27T05:09:51.632Z,69.61
2023-04-27T05:10:51.595Z,68.32
2023-04-27T05:11:51.604Z,68.32
2023-04-27T05:12:51.603Z,67.68
2023-04-27T05:13:51.604Z,68.32
2023-04-27T05:14:51.575Z,68.16
2023-04-27T05:15:52.597Z,65.74
2023-04-27T05:16:51.560Z,66.39
2023-04-27T05:17:51.556Z,69.29
2023-04-27T05:18:51.546Z,67.19
2023-04-27T05:19:51.505Z,67.03
2023-04-27T05:20:51.522Z,67.68
2023-04-27T05:21:51.519Z,68.64
2023-04-27T05:22:51.481Z,68.32
2023-04-27T05:23:51.476Z,66.71
2023-04-27T05:24:51.466Z,67.84
2023-04-27T05:25:51.464Z,68.48
2023-04-27T05:26:51.475Z,68.80
2023-04-27T05:27:51.428Z,66.55
2023-04-27T05:28:51.424Z,65.58
2023-04-27T05:29:51.416Z,67.84
2023-04-27T05:30:51.400Z,67.19
2023-04-27T05:31:51.451Z,69.93
2023-04-27T05:32:51.416Z,68.32
2023-04-27T05:33:51.387Z,66.55
2023-04-27T05:34:51.365Z,69.29
2023-04-27T05:35:51.345Z,68.16
2023-04-27T05:36:51.395Z,67.51
2023-04-27T05:37:51.378Z,66.87
2023-04-27T05:38:51.325Z,66.87
2023-04-27T05:39:51.324Z,67.03
2023-04-27T05:40:51.301Z,67.03
2023-04-27T05:41:51.321Z,68.64
2023-04-27T05:42:51.291Z,66.23
2023-04-27T05:43:51.273Z,66.39
2023-04-27T05:44:51.251Z,67.03
2023-04-27T05:45:51.259Z,67.35
2023-04-27T05:46:51.250Z,66.87
2023-04-27T05:47:51.301Z,66.23
2023-04-27T05:48:51.213Z,66.55
2023-04-27T05:49:51.214Z,67.03
2023-04-27T05:50:51.207Z,68.80
2023-04-27T05:51:51.241Z,67.35
2023-04-27T05:52:51.182Z,68.48
2023-04-27T05:53:51.170Z,67.51
2023-04-27T05:54:51.165Z,67.19
2023-04-27T05:55:51.150Z,69.61
2023-04-27T05:56:51.176Z,67.35
2023-04-27T05:58:00.567Z,67.35
2023-04-27T05:58:53.118Z,67.84
2023-04-27T05:59:51.110Z,68.96
2023-04-27T06:00:51.094Z,67.19
2023-04-27T06:01:51.116Z,68.48
2023-04-27T06:02:51.223Z,66.87
2023-04-27T06:03:51.126Z,68.96
2023-04-27T06:04:51.060Z,68.32
2023-04-27T06:05:51.039Z,67.51
2023-04-27T06:06:51.033Z,67.35
2023-04-27T06:07:51.034Z,67.68
2023-04-27T06:08:51.003Z,67.84
2023-04-27T06:09:51.029Z,68.00
2023-04-27T06:10:50.977Z,66.87
2023-04-27T06:11:50.980Z,67.68
2023-04-27T06:12:50.996Z,66.55
2023-04-27T06:13:50.960Z,66.23
2023-04-27T06:14:50.935Z,67.35
2023-04-27T06:15:50.960Z,67.68
2023-04-27T06:16:50.909Z,68.16
2023-04-27T06:17:50.962Z,66.87
2023-04-27T06:18:50.916Z,67.51
2023-04-27T06:19:50.881Z,67.35
2023-04-27T06:20:50.867Z,66.87
2023-04-27T06:21:50.871Z,67.19
2023-04-27T06:22:50.862Z,66.06
2023-04-27T06:23:50.831Z,66.87
2023-04-27T06:24:50.838Z,66.55
2023-04-27T06:25:50.806Z,65.74
2023-04-27T06:26:50.799Z,66.23
2023-04-27T06:27:50.818Z,66.55
2023-04-27T06:28:50.781Z,67.35
2023-04-27T06:29:50.756Z,66.87
2023-04-27T06:30:50.760Z,66.23
2023-04-27T06:31:50.808Z,67.68
2023-04-27T06:32:50.779Z,66.87
2023-04-27T06:33:50.730Z,67.68
2023-04-27T06:34:50.711Z,67.35
2023-04-27T06:35:50.711Z,68.80
2023-04-27T06:36:50.704Z,68.00
2023-04-27T06:37:50.672Z,67.35
2023-04-27T06:38:50.664Z,67.03
2023-04-27T06:39:50.643Z,68.00
2023-04-27T06:40:50.640Z,68.00
2023-04-27T06:41:50.628Z,68.96
2023-04-27T06:42:50.635Z,68.64
2023-04-27T06:43:50.601Z,67.84
2023-04-27T06:44:50.608Z,68.00
2023-04-27T06:45:50.648Z,67.84
2023-04-27T06:46:50.580Z,69.13
2023-04-27T06:47:50.590Z,68.32
2023-04-27T06:48:50.581Z,66.87
2023-04-27T06:49:50.545Z,67.51
2023-04-27T06:50:50.564Z,66.87
2023-04-27T06:51:50.553Z,68.48
2023-04-27T06:52:50.534Z,66.71
2023-04-27T06:53:51.074Z,68.16
2023-04-27T06:54:50.503Z,67.19
2023-04-27T06:55:50.484Z,66.06
2023-04-27T06:56:50.495Z,66.39
2023-04-27T06:57:50.468Z,67.68
2023-04-27T06:58:50.460Z,68.00
2023-04-27T06:59:50.441Z,65.90
2023-04-27T07:00:50.424Z,67.19
2023-04-27T07:01:50.440Z,67.68
2023-04-27T07:02:50.479Z,65.90
2023-04-27T07:03:50.552Z,65.26
2023-04-27T07:04:50.509Z,65.90
2023-04-27T07:05:50.384Z,66.71
2023-04-27T07:06:50.417Z,67.84
2023-04-27T07:07:50.358Z,66.87
2023-04-27T07:08:50.346Z,65.90
2023-04-27T07:09:50.371Z,66.71
2023-04-27T07:10:50.348Z,67.19
2023-04-27T07:11:50.311Z,65.42
2023-04-27T07:12:50.327Z,65.10
2023-04-27T07:13:50.310Z,66.06
2023-04-27T07:14:50.283Z,66.71
2023-04-27T07:15:50.274Z,67.51
2023-04-27T07:16:50.297Z,68.00
2023-04-27T07:17:50.311Z,66.06
2023-04-27T07:18:50.262Z,64.13
2023-04-27T07:19:50.243Z,63.81
2023-04-27T07:20:50.235Z,63.49
2023-04-27T07:21:50.234Z,63.97
2023-04-27T07:22:50.221Z,65.42
2023-04-27T07:23:50.195Z,65.42
2023-04-27T07:24:50.214Z,63.97
2023-04-27T07:25:50.197Z,66.71
2023-04-27T07:26:50.191Z,64.29
2023-04-27T07:27:50.181Z,64.29
2023-04-27T07:28:50.155Z,66.23
2023-04-27T07:29:50.154Z,64.78
2023-04-27T07:30:50.130Z,66.06
2023-04-27T07:31:52.036Z,63.97
2023-04-27T07:32:51.214Z,63.97
2023-04-27T07:33:50.103Z,65.10
2023-04-27T07:34:53.987Z,67.19
2023-04-27T07:35:51.083Z,65.10
2023-04-27T07:36:50.075Z,66.39
2023-04-27T07:37:50.091Z,66.39
2023-04-27T07:38:50.098Z,64.13
2023-04-27T07:39:50.086Z,65.26
2023-04-27T07:40:50.020Z,66.87
2023-04-27T07:41:50.057Z,63.65
2023-04-27T07:42:50.028Z,62.68
2023-04-27T07:43:50.015Z,65.26
2023-04-27T07:44:49.986Z,65.26
2023-04-27T07:45:49.986Z,63.81
2023-04-27T07:46:49.967Z,64.61
2023-04-27T07:47:49.990Z,65.42
2023-04-27T07:48:49.954Z,64.29
2023-04-27T07:49:49.932Z,64.78
2023-04-27T07:50:49.932Z,65.26
2023-04-27T07:51:49.914Z,63.81
2023-04-27T07:52:49.951Z,63.00
2023-04-27T07:53:49.899Z,63.16
2023-04-27T07:54:49.894Z,65.10
2023-04-27T07:55:49.876Z,64.13
2023-04-27T07:56:49.878Z,65.42
2023-04-27T07:57:49.872Z,65.58
2023-04-27T07:58:49.848Z,64.13
2023-04-27T07:59:49.871Z,64.13
2023-04-27T08:00:49.837Z,64.94
2023-04-27T08:01:49.852Z,62.84
2023-04-27T08:02:50.141Z,64.94
2023-04-27T08:03:49.993Z,63.00
2023-04-27T08:04:50.026Z,65.26
2023-04-27T08:05:50.023Z,65.42
2023-04-27T08:06:50.312Z,65.58
2023-04-27T08:07:50.107Z,65.42
2023-04-27T08:08:49.744Z,63.81
2023-04-27T08:09:49.738Z,65.58
2023-04-27T08:10:49.746Z,63.00
2023-04-27T08:11:49.716Z,65.90
2023-04-27T08:12:49.731Z,62.84
2023-04-27T08:13:49.695Z,64.29
2023-04-27T08:14:49.692Z,64.78
2023-04-27T08:15:49.669Z,64.78
2023-04-27T08:16:49.692Z,65.58
2023-04-27T08:17:49.699Z,64.94
2023-04-27T08:18:49.642Z,64.61
2023-04-27T08:19:49.632Z,64.29
2023-04-27T08:20:49.624Z,65.90
2023-04-27T08:21:49.611Z,64.29
2023-04-27T08:22:49.632Z,64.61
2023-04-27T08:23:49.617Z,65.26
2023-04-27T08:24:49.590Z,66.06
2023-04-27T08:25:49.576Z,63.49
2023-04-27T08:26:49.569Z,66.23
2023-04-27T08:27:49.593Z,63.49
2023-04-27T08:28:49.550Z,65.10
2023-04-27T08:29:49.534Z,64.78
2023-04-27T08:30:49.549Z,65.10
2023-04-27T08:31:49.538Z,63.33
2023-04-27T08:32:49.573Z,63.97
2023-04-27T08:33:49.503Z,63.81
2023-04-27T08:34:49.476Z,63.65
2023-04-27T08:35:49.487Z,64.94
2023-04-27T08:36:49.465Z,64.78
2023-04-27T08:37:49.463Z,65.90
2023-04-27T08:38:49.447Z,64.45
2023-04-27T08:39:49.435Z,66.71
2023-04-27T08:40:49.424Z,65.42
2023-04-27T08:41:49.532Z,65.58
2023-04-27T08:43:24.224Z,64.94
2023-04-27T08:43:49.388Z,63.97
2023-04-27T08:44:49.385Z,67.19
2023-04-27T08:45:49.378Z,65.58
2023-04-27T08:46:49.518Z,65.10
2023-04-27T08:47:49.409Z,63.81
2023-04-27T08:48:49.342Z,63.49
2023-04-27T08:49:49.340Z,60.91
2023-04-27T08:50:49.324Z,61.55
2023-04-27T08:51:49.312Z,65.10
2023-04-27T08:52:49.413Z,65.42
2023-04-27T08:53:49.320Z,62.04
2023-04-27T08:54:49.288Z,63.33
2023-04-27T08:55:49.265Z,63.65
2023-04-27T08:56:49.265Z,64.94
2023-04-27T08:57:49.274Z,64.13
2023-04-27T08:58:49.241Z,62.36
2023-04-27T08:59:49.241Z,62.84
2023-04-27T09:00:50.744Z,61.87
2023-04-27T09:01:49.590Z,63.49
2023-04-27T09:02:49.491Z,61.07
2023-04-27T09:03:49.351Z,61.39
2023-04-27T09:04:49.318Z,61.55
2023-04-27T09:06:00.541Z,61.23
2023-04-27T09:06:51.191Z,60.91
2023-04-27T09:07:49.189Z,61.55
2023-04-27T09:08:49.141Z,60.91
2023-04-27T09:09:49.135Z,60.91
2023-04-27T09:10:49.156Z,64.13
2023-04-27T09:11:49.119Z,61.07
2023-04-27T09:12:49.168Z,60.10
2023-04-27T09:13:49.106Z,60.59
2023-04-27T09:14:49.087Z,61.07
2023-04-27T09:15:49.078Z,62.68
2023-04-27T09:16:49.154Z,61.07
2023-04-27T09:17:49.141Z,59.78
2023-04-27T09:18:49.056Z,62.36
2023-04-27T09:19:49.043Z,63.16
2023-04-27T09:20:49.019Z,63.16
2023-04-27T09:21:49.021Z,64.78
2023-04-27T09:22:49.054Z,63.00
2023-04-27T09:23:49.014Z,61.39
2023-04-27T09:24:49.006Z,61.39
2023-04-27T09:25:48.980Z,61.55
2023-04-27T09:26:48.981Z,62.04
2023-04-27T09:27:48.975Z,61.55
2023-04-27T09:28:48.944Z,62.04
2023-04-27T09:29:48.932Z,61.07
2023-04-27T09:30:48.922Z,63.49
2023-04-27T09:31:48.944Z,62.04
2023-04-27T09:32:48.951Z,62.20
2023-04-27T09:33:48.902Z,62.36
2023-04-27T09:34:48.908Z,63.81
2023-04-27T09:35:48.870Z,64.45
2023-04-27T09:36:48.880Z,65.10
2023-04-27T09:37:48.876Z,61.87
2023-04-27T09:38:48.840Z,64.45
2023-04-27T09:39:48.833Z,65.90
2023-04-27T09:40:48.811Z,65.42
2023-04-27T09:41:48.806Z,64.61
2023-04-27T09:42:48.820Z,63.81
2023-04-27T09:43:48.780Z,65.90
2023-04-27T09:44:48.783Z,63.49
2023-04-27T09:45:48.781Z,63.65
2023-04-27T09:46:48.775Z,64.94
2023-04-27T09:47:48.816Z,64.45
2023-04-27T09:48:48.733Z,64.78
2023-04-27T09:49:48.727Z,63.49
2023-04-27T09:50:48.708Z,63.81
2023-04-27T09:51:48.734Z,63.65
2023-04-27T09:52:48.697Z,64.45
2023-04-27T09:53:48.685Z,62.68
2023-04-27T09:54:48.687Z,63.97
2023-04-27T09:55:49.990Z,63.49
2023-04-27T09:56:48.681Z,64.45
2023-04-27T09:57:48.643Z,63.97
2023-04-27T09:58:48.630Z,64.78
2023-04-27T09:59:48.626Z,64.61
2023-04-27T10:00:48.633Z,63.16
2023-04-27T10:01:48.678Z,63.33
2023-04-27T10:03:49.716Z,63.65
2023-04-27T10:04:48.590Z,63.65
2023-04-27T10:05:48.571Z,64.61
2023-04-27T10:06:48.568Z,64.94
2023-04-27T10:07:48.539Z,64.78
2023-04-27T10:08:48.531Z,63.49
2023-04-27T10:09:48.517Z,62.84
2023-04-27T10:10:48.512Z,61.55
2023-04-27T10:11:48.503Z,62.52
2023-04-27T10:12:48.506Z,63.81
2023-04-27T10:13:48.482Z,63.65
2023-04-27T10:14:48.470Z,63.16
2023-04-27T10:15:48.466Z,62.52
2023-04-27T10:16:48.501Z,62.36
2023-04-27T10:17:48.560Z,62.36
2023-04-27T10:18:48.420Z,62.36
2023-04-27T10:19:49.414Z,62.68
2023-04-27T10:20:48.405Z,62.84
2023-04-27T10:21:48.397Z,63.16
2023-04-27T10:22:48.416Z,62.36
2023-04-27T10:23:48.432Z,63.65
2023-04-27T10:24:48.365Z,63.16
2023-04-27T10:25:48.359Z,64.61
2023-04-27T10:26:48.353Z,62.68
2023-04-27T10:27:48.357Z,62.84
2023-04-27T10:28:48.336Z,62.20
2023-04-27T10:29:48.337Z,62.04
2023-04-27T10:30:48.337Z,61.55
2023-04-27T10:31:48.300Z,60.91
2023-04-27T10:32:48.362Z,62.36
2023-04-27T10:33:48.277Z,62.04
2023-04-27T10:34:48.284Z,61.87
2023-04-27T10:35:48.263Z,62.04
2023-04-27T10:36:48.293Z,61.23
2023-04-27T10:37:48.238Z,60.26
2023-04-27T10:38:48.234Z,61.87
2023-04-27T10:39:49.933Z,61.55
2023-04-27T10:40:49.213Z,62.36
2023-04-27T10:41:48.228Z,61.55
2023-04-27T10:42:48.200Z,61.87
2023-04-27T10:43:48.187Z,61.87
2023-04-27T10:44:48.169Z,61.23
2023-04-27T10:45:48.205Z,63.97
2023-04-27T10:46:48.149Z,62.20
2023-04-27T10:47:48.217Z,62.84
2023-04-27T10:48:48.155Z,63.49
2023-04-27T10:49:48.136Z,62.36
2023-04-27T10:50:48.111Z,62.52
2023-04-27T10:51:48.091Z,62.36
2023-04-27T10:52:48.120Z,61.23
2023-04-27T10:53:48.093Z,61.55
2023-04-27T10:54:48.076Z,64.13
2023-04-27T10:55:48.061Z,62.20
2023-04-27T10:56:48.058Z,61.39
2023-04-27T10:57:48.081Z,61.87
2023-04-27T10:58:49.540Z,61.39
2023-04-27T10:59:49.036Z,60.75
2023-04-27T11:00:48.019Z,61.23
2023-04-27T11:01:48.117Z,63.00
2023-04-27T11:02:48.164Z,63.65
2023-04-27T11:03:48.151Z,64.61
2023-04-27T11:04:48.034Z,63.16
2023-04-27T11:05:47.967Z,63.81
2023-04-27T11:06:47.975Z,63.49
2023-04-27T11:07:47.980Z,64.13
2023-04-27T11:08:47.929Z,61.71
2023-04-27T11:09:47.932Z,61.71
2023-04-27T11:10:47.901Z,60.59
2023-04-27T11:11:47.896Z,62.04
2023-04-27T11:12:47.907Z,63.00
2023-04-27T11:13:47.874Z,62.20
2023-04-27T11:14:47.879Z,61.55
2023-04-27T11:15:47.934Z,61.07
2023-04-27T11:16:47.902Z,61.39
2023-04-27T11:17:47.897Z,61.55
2023-04-27T11:18:47.834Z,61.07
2023-04-27T11:19:47.825Z,61.39
2023-04-27T11:20:47.815Z,60.75
2023-04-27T11:21:47.802Z,62.20
2023-04-27T11:22:47.856Z,61.39
2023-04-27T11:23:47.776Z,60.91
2023-04-27T11:24:47.773Z,59.94
2023-04-27T11:25:47.753Z,60.75
2023-04-27T11:26:47.745Z,61.39
2023-04-27T11:27:47.764Z,62.04
2023-04-27T11:28:47.727Z,59.46
2023-04-27T11:29:47.714Z,59.62
2023-04-27T11:30:47.749Z,58.97
2023-04-27T11:31:47.828Z,59.94
2023-04-27T11:32:47.821Z,59.78
2023-04-27T11:33:47.685Z,59.46
2023-04-27T11:34:47.672Z,59.78
2023-04-27T11:35:47.696Z,60.91
2023-04-27T11:36:47.648Z,60.91
2023-04-27T11:37:47.652Z,60.10
2023-04-27T11:38:47.688Z,60.10
2023-04-27T11:39:47.612Z,60.26
2023-04-27T11:40:47.601Z,61.71
2023-04-27T11:41:47.611Z,62.36
2023-04-27T11:42:47.604Z,60.10
2023-04-27T11:43:47.581Z,61.39
2023-04-27T11:44:47.565Z,62.04
2023-04-27T11:45:47.561Z,58.97
2023-04-27T11:46:47.722Z,58.49
2023-04-27T11:47:47.676Z,61.55
2023-04-27T11:48:47.544Z,61.39
2023-04-27T11:49:47.517Z,58.33
2023-04-27T11:50:47.518Z,58.49
2023-04-27T11:51:47.503Z,59.46
2023-04-27T11:52:47.509Z,58.33
2023-04-27T11:53:47.477Z,59.14
2023-04-27T11:54:47.474Z,61.87
2023-04-27T11:55:47.454Z,60.75
2023-04-27T11:56:47.459Z,61.07
2023-04-27T11:57:47.469Z,63.00
2023-04-27T11:58:47.440Z,62.68
2023-04-27T11:59:47.461Z,62.68
2023-04-27T12:00:47.414Z,61.39
2023-04-27T12:01:47.422Z,61.39
2023-04-27T12:02:47.624Z,61.23
2023-04-27T12:03:47.443Z,61.39
2023-04-27T12:04:47.423Z,61.87
2023-04-27T12:05:47.491Z,62.04
2023-04-27T12:06:47.349Z,59.94
2023-04-27T12:07:47.350Z,62.20
2023-04-27T12:08:47.326Z,62.04
2023-04-27T12:09:47.311Z,59.46
2023-04-27T12:10:47.314Z,58.81
2023-04-27T12:11:47.302Z,59.30
2023-04-27T12:12:47.315Z,59.94
2023-04-27T12:13:47.289Z,61.07
2023-04-27T12:14:47.296Z,60.91
2023-04-27T12:15:47.253Z,60.26
2023-04-27T12:16:47.309Z,62.04
2023-04-27T12:17:47.320Z,60.75
2023-04-27T12:18:47.229Z,61.55
2023-04-27T12:19:47.218Z,62.20
2023-04-27T12:20:47.207Z,60.59
2023-04-27T12:21:47.281Z,60.75
2023-04-27T12:22:47.420Z,66.23
2023-04-27T12:23:47.203Z,74.28
2023-04-27T12:24:47.188Z,63.49
2023-04-27T12:25:47.156Z,61.07
2023-04-27T12:26:47.177Z,62.52
2023-04-27T12:27:47.155Z,60.10
2023-04-27T12:28:47.130Z,58.33
2023-04-27T12:29:47.123Z,61.07
2023-04-27T12:30:47.157Z,61.39
2023-04-27T12:31:47.104Z,60.59
2023-04-27T12:32:47.152Z,61.87
2023-04-27T12:33:47.087Z,61.39
2023-04-27T12:34:47.078Z,60.75
2023-04-27T12:35:47.072Z,61.07
2023-04-27T12:36:47.075Z,60.59
2023-04-27T12:37:47.075Z,59.78
2023-04-27T12:38:47.035Z,62.68
2023-04-27T12:39:47.058Z,61.55
2023-04-27T12:40:47.007Z,59.30
2023-04-27T12:41:47.000Z,60.42
2023-04-27T12:42:47.029Z,61.55
2023-04-27T12:43:46.975Z,62.52
2023-04-27T12:44:46.976Z,63.33
2023-04-27T12:45:46.998Z,64.45
2023-04-27T12:46:46.998Z,61.71
2023-04-27T12:48:01.610Z,63.65
2023-04-27T12:48:48.976Z,60.42
2023-04-27T12:49:46.925Z,63.65
2023-04-27T12:50:46.923Z,63.16
2023-04-27T12:51:46.907Z,63.16
2023-04-27T12:52:46.908Z,63.33
2023-04-27T12:53:46.886Z,64.61